This is the latest recevied weather packets stored in our database for station/object IQ8VX-3. If no packets are shown the sender has not sent any weather packets the latest 1 day(s).
| Time | Temp. | Humidity | Pressure | Rain* | Wind** | Luminosity | Snow |
|---|---|---|---|---|---|---|---|
| 1778073388 | 21.11° C | 74% | 1709.8 hPa | - | - | - | - |
| 1778066186 | 21.67° C | 73% | 1710.6 hPa | - | - | - | - |
| 1778064986 | 21.11° C | 77% | 1709.8 hPa | - | - | - | - |
| 1778062585 | 20.56° C | 75% | 1707.9 hPa | - | - | - | - |
| 1778061385 | 20.56° C | 76% | 1707.5 hPa | - | - | - | - |
| 1778060184 | 19.44° C | 78% | 1704.9 hPa | - | - | - | - |
| 1778058984 | 21.11° C | 74% | 1709.6 hPa | - | - | - | - |
| 1778057784 | 21.11° C | 76% | 1708.9 hPa | - | - | - | - |
| 1778055383 | 19.44° C | 81% | 1704.8 hPa | - | - | - | - |
| 1778054183 | 19.44° C | 79% | 1705.3 hPa | - | - | - | - |
| 1778051782 | 19.44° C | 87% | 1704.6 hPa | - | - | - | - |
| 1778050582 | 18.33° C | 92% | 1690.9 hPa | - | - | - | - |
| 1778048181 | 17.22° C | 94% | 1287.7 hPa | - | - | - | - |
| 1778046981 | 17.22° C | 94% | 1379.4 hPa | - | - | - | - |
| 1778045781 | 16.67° C | 92% | 1698.1 hPa | - | - | - | - |
| 1778044580 | 16.67° C | 91% | 1697.5 hPa | - | - | - | - |
| 1778043380 | 16.11° C | 91% | 1696.8 hPa | - | - | - | - |
| 1778042180 | 16.11° C | 93% | 1696.1 hPa | - | - | - | - |
| 1778039779 | 16.11° C | 94% | 1438.9 hPa | - | - | - | - |
| 1778038579 | 15.56° C | 95% | 1391.2 hPa | - | - | - | - |
| 1778037378 | 15.56° C | 95% | 1344.1 hPa | - | - | - | - |
| 1778036178 | 16.11° C | 96% | 1314.1 hPa | - | - | - | - |
| 1778034978 | 16.11° C | 97% | 1146.3 hPa | - | - | - | - |
| 1778033777 | 16.11° C | 98% | 1076.9 hPa | - | - | - | - |
| 1778032577 | 16.11° C | 97% | 1156 hPa | - | - | - | - |
* Rain since midnight (hover to see other rain measurements)
** Current wind speed in m/s (hover to see current wind gust speed)